sensor_id;sensor_type;location;lat;lon;timestamp;temperature;humidity
71254;HTU21D;59019;47.638;18.966;2022-09-16T00:01:12;16.56;98.75
71254;HTU21D;59019;47.638;18.966;2022-09-16T00:03:38;16.61;98.42
71254;HTU21D;59019;47.638;18.966;2022-09-16T00:06:05;16.49;98.68
71254;HTU21D;59019;47.638;18.966;2022-09-16T00:08:31;16.55;98.39
71254;HTU21D;59019;47.638;18.966;2022-09-16T00:11:00;16.45;98.46
71254;HTU21D;59019;47.638;18.966;2022-09-16T00:13:26;16.41;99.07
71254;HTU21D;59019;47.638;18.966;2022-09-16T00:15:52;16.41;99.08
71254;HTU21D;59019;47.638;18.966;2022-09-16T00:18:18;16.40;99.00
71254;HTU21D;59019;47.638;18.966;2022-09-16T00:20:51;16.33;98.97
71254;HTU21D;59019;47.638;18.966;2022-09-16T00:23:19;16.35;99.00
71254;HTU21D;59019;47.638;18.966;2022-09-16T00:25:52;16.35;98.51
71254;HTU21D;59019;47.638;18.966;2022-09-16T00:28:22;16.35;98.43
71254;HTU21D;59019;47.638;18.966;2022-09-16T00:30:48;16.35;98.84
71254;HTU21D;59019;47.638;18.966;2022-09-16T00:33:14;16.30;99.00
71254;HTU21D;59019;47.638;18.966;2022-09-16T00:35:40;16.36;99.01
71254;HTU21D;59019;47.638;18.966;2022-09-16T00:38:05;16.29;98.58
71254;HTU21D;59019;47.638;18.966;2022-09-16T00:40:32;16.35;98.47
71254;HTU21D;59019;47.638;18.966;2022-09-16T00:42:57;16.35;98.29
71254;HTU21D;59019;47.638;18.966;2022-09-16T00:45:25;16.27;98.71
71254;HTU21D;59019;47.638;18.966;2022-09-16T00:48:02;16.27;98.34
71254;HTU21D;59019;47.638;18.966;2022-09-16T00:50:51;16.26;98.56
71254;HTU21D;59019;47.638;18.966;2022-09-16T00:53:25;16.17;98.84
71254;HTU21D;59019;47.638;18.966;2022-09-16T00:55:53;16.13;98.75
71254;HTU21D;59019;47.638;18.966;2022-09-16T00:58:33;16.11;98.79
71254;HTU21D;59019;47.638;18.966;2022-09-16T01:01:02;16.04;98.55
71254;HTU21D;59019;47.638;18.966;2022-09-16T01:03:32;16.03;98.55
71254;HTU21D;59019;47.638;18.966;2022-09-16T01:05:59;16.00;98.77
71254;HTU21D;59019;47.638;18.966;2022-09-16T01:08:25;16.01;98.42
71254;HTU21D;59019;47.638;18.966;2022-09-16T01:10:50;15.98;98.49
71254;HTU21D;59019;47.638;18.966;2022-09-16T01:13:16;15.89;98.60
71254;HTU21D;59019;47.638;18.966;2022-09-16T01:16:05;15.90;98.22
71254;HTU21D;59019;47.638;18.966;2022-09-16T01:21:35;15.92;97.45
71254;HTU21D;59019;47.638;18.966;2022-09-16T01:34:57;15.86;98.13
71254;HTU21D;59019;47.638;18.966;2022-09-16T01:40:55;15.67;98.65
71254;HTU21D;59019;47.638;18.966;2022-09-16T01:44:04;15.55;98.43
71254;HTU21D;59019;47.638;18.966;2022-09-16T01:52:14;15.45;97.84
71254;HTU21D;59019;47.638;18.966;2022-09-16T01:54:56;15.45;97.95
71254;HTU21D;59019;47.638;18.966;2022-09-16T02:00:09;15.36;98.31
71254;HTU21D;59019;47.638;18.966;2022-09-16T02:02:49;15.44;98.19
71254;HTU21D;59019;47.638;18.966;2022-09-16T02:08:07;15.24;98.87
71254;HTU21D;59019;47.638;18.966;2022-09-16T02:10:42;15.28;98.60
71254;HTU21D;59019;47.638;18.966;2022-09-16T02:13:14;15.30;98.52
71254;HTU21D;59019;47.638;18.966;2022-09-16T02:15:42;15.30;98.62
71254;HTU21D;59019;47.638;18.966;2022-09-16T02:18:11;15.32;98.77
71254;HTU21D;59019;47.638;18.966;2022-09-16T02:20:41;15.29;98.55
71254;HTU21D;59019;47.638;18.966;2022-09-16T02:23:19;15.23;98.79
71254;HTU21D;59019;47.638;18.966;2022-09-16T02:25:47;15.15;99.07
71254;HTU21D;59019;47.638;18.966;2022-09-16T02:28:17;15.16;98.93
71254;HTU21D;59019;47.638;18.966;2022-09-16T02:30:47;15.23;98.88
71254;HTU21D;59019;47.638;18.966;2022-09-16T02:33:15;15.27;98.49
71254;HTU21D;59019;47.638;18.966;2022-09-16T02:35:45;15.17;98.94
71254;HTU21D;59019;47.638;18.966;2022-09-16T02:38:25;15.22;98.71
71254;HTU21D;59019;47.638;18.966;2022-09-16T02:40:55;15.24;98.62
71254;HTU21D;59019;47.638;18.966;2022-09-16T02:43:22;15.18;98.64
71254;HTU21D;59019;47.638;18.966;2022-09-16T02:48:42;15.18;98.05
71254;HTU21D;59019;47.638;18.966;2022-09-16T02:56:38;15.16;97.99
71254;HTU21D;59019;47.638;18.966;2022-09-16T02:59:07;15.19;98.08
71254;HTU21D;59019;47.638;18.966;2022-09-16T03:01:39;15.15;97.87
71254;HTU21D;59019;47.638;18.966;2022-09-16T03:04:07;15.16;97.95
71254;HTU21D;59019;47.638;18.966;2022-09-16T03:06:32;15.14;97.75
71254;HTU21D;59019;47.638;18.966;2022-09-16T03:09:02;15.07;97.98
71254;HTU21D;59019;47.638;18.966;2022-09-16T03:11:48;15.17;97.66
71254;HTU21D;59019;47.638;18.966;2022-09-16T03:26:03;14.97;98.13
71254;HTU21D;59019;47.638;18.966;2022-09-16T03:28:46;15.02;97.80
71254;HTU21D;59019;47.638;18.966;2022-09-16T03:31:29;14.97;97.65
71254;HTU21D;59019;47.638;18.966;2022-09-16T03:34:13;14.95;97.55
71254;HTU21D;59019;47.638;18.966;2022-09-16T03:36:44;14.97;97.23
71254;HTU21D;59019;47.638;18.966;2022-09-16T03:39:12;14.91;97.45
71254;HTU21D;59019;47.638;18.966;2022-09-16T03:41:38;14.97;97.31
71254;HTU21D;59019;47.638;18.966;2022-09-16T03:44:04;15.11;97.16
71254;HTU21D;59019;47.638;18.966;2022-09-16T03:46:30;15.03;96.82
71254;HTU21D;59019;47.638;18.966;2022-09-16T03:48:57;14.94;96.98
71254;HTU21D;59019;47.638;18.966;2022-09-16T03:51:24;14.91;96.89
71254;HTU21D;59019;47.638;18.966;2022-09-16T03:53:51;14.91;96.81
71254;HTU21D;59019;47.638;18.966;2022-09-16T03:56:16;14.94;96.86
71254;HTU21D;59019;47.638;18.966;2022-09-16T03:58:42;14.86;97.04
71254;HTU21D;59019;47.638;18.966;2022-09-16T04:01:08;14.87;97.00
71254;HTU21D;59019;47.638;18.966;2022-09-16T04:03:33;14.83;97.14
71254;HTU21D;59019;47.638;18.966;2022-09-16T04:06:01;14.86;97.04
71254;HTU21D;59019;47.638;18.966;2022-09-16T04:08:27;14.78;97.30
71254;HTU21D;59019;47.638;18.966;2022-09-16T04:10:57;14.83;97.16
71254;HTU21D;59019;47.638;18.966;2022-09-16T04:13:23;14.82;97.09
71254;HTU21D;59019;47.638;18.966;2022-09-16T04:15:49;14.82;97.16
71254;HTU21D;59019;47.638;18.966;2022-09-16T04:18:15;14.74;97.48
71254;HTU21D;59019;47.638;18.966;2022-09-16T04:20:41;14.80;97.45
71254;HTU21D;59019;47.638;18.966;2022-09-16T04:23:07;14.73;97.10
71254;HTU21D;59019;47.638;18.966;2022-09-16T04:25:32;14.73;96.90
71254;HTU21D;59019;47.638;18.966;2022-09-16T04:27:58;14.67;97.04
71254;HTU21D;59019;47.638;18.966;2022-09-16T04:30:24;14.78;96.81
71254;HTU21D;59019;47.638;18.966;2022-09-16T04:32:53;14.85;96.29
71254;HTU21D;59019;47.638;18.966;2022-09-16T04:35:19;14.85;96.10
71254;HTU21D;59019;47.638;18.966;2022-09-16T04:37:45;14.80;96.55
71254;HTU21D;59019;47.638;18.966;2022-09-16T04:40:11;14.71;96.81
71254;HTU21D;59019;47.638;18.966;2022-09-16T04:42:36;14.73;96.83
71254;HTU21D;59019;47.638;18.966;2022-09-16T04:45:02;14.78;96.42
71254;HTU21D;59019;47.638;18.966;2022-09-16T04:47:28;14.81;96.52
71254;HTU21D;59019;47.638;18.966;2022-09-16T04:49:54;14.74;96.55
71254;HTU21D;59019;47.638;18.966;2022-09-16T04:52:19;14.77;96.52
71254;HTU21D;59019;47.638;18.966;2022-09-16T04:54:45;14.77;96.78
71254;HTU21D;59019;47.638;18.966;2022-09-16T04:57:11;14.71;96.80
71254;HTU21D;59019;47.638;18.966;2022-09-16T04:59:36;14.79;96.75
71254;HTU21D;59019;47.638;18.966;2022-09-16T05:02:02;14.78;97.00
71254;HTU21D;59019;47.638;18.966;2022-09-16T05:04:27;14.80;97.13
71254;HTU21D;59019;47.638;18.966;2022-09-16T05:06:53;14.92;96.89
71254;HTU21D;59019;47.638;18.966;2022-09-16T05:09:18;14.95;96.87
71254;HTU21D;59019;47.638;18.966;2022-09-16T05:11:47;14.98;96.50
71254;HTU21D;59019;47.638;18.966;2022-09-16T05:14:15;15.03;96.48
71254;HTU21D;59019;47.638;18.966;2022-09-16T05:16:40;15.10;96.55
71254;HTU21D;59019;47.638;18.966;2022-09-16T05:19:06;15.09;96.36
71254;HTU21D;59019;47.638;18.966;2022-09-16T05:21:34;15.16;96.12
71254;HTU21D;59019;47.638;18.966;2022-09-16T05:24:01;15.22;95.68
71254;HTU21D;59019;47.638;18.966;2022-09-16T05:26:30;15.22;95.78
71254;HTU21D;59019;47.638;18.966;2022-09-16T05:28:59;15.27;96.15
71254;HTU21D;59019;47.638;18.966;2022-09-16T05:31:26;15.34;96.26
71254;HTU21D;59019;47.638;18.966;2022-09-16T05:36:30;15.53;95.97
71254;HTU21D;59019;47.638;18.966;2022-09-16T05:38:56;15.61;96.01
71254;HTU21D;59019;47.638;18.966;2022-09-16T05:41:22;15.75;95.24
71254;HTU21D;59019;47.638;18.966;2022-09-16T05:43:48;15.84;95.31
71254;HTU21D;59019;47.638;18.966;2022-09-16T05:46:20;15.95;95.47
71254;HTU21D;59019;47.638;18.966;2022-09-16T05:48:47;16.12;94.11
71254;HTU21D;59019;47.638;18.966;2022-09-16T05:51:15;16.27;93.46
71254;HTU21D;59019;47.638;18.966;2022-09-16T05:53:41;16.40;92.69
71254;HTU21D;59019;47.638;18.966;2022-09-16T05:56:10;16.39;91.92
71254;HTU21D;59019;47.638;18.966;2022-09-16T05:58:36;16.43;92.20
71254;HTU21D;59019;47.638;18.966;2022-09-16T06:01:08;16.40;91.50
71254;HTU21D;59019;47.638;18.966;2022-09-16T06:03:36;16.37;91.07
71254;HTU21D;59019;47.638;18.966;2022-09-16T06:06:04;16.32;91.16
71254;HTU21D;59019;47.638;18.966;2022-09-16T06:08:33;16.26;91.57
71254;HTU21D;59019;47.638;18.966;2022-09-16T06:11:03;16.06;90.95
71254;HTU21D;59019;47.638;18.966;2022-09-16T06:13:29;16.06;91.57
71254;HTU21D;59019;47.638;18.966;2022-09-16T06:15:55;16.13;91.61
71254;HTU21D;59019;47.638;18.966;2022-09-16T06:18:22;16.15;91.18
71254;HTU21D;59019;47.638;18.966;2022-09-16T06:20:48;16.17;91.53
71254;HTU21D;59019;47.638;18.966;2022-09-16T06:23:14;16.26;91.92
71254;HTU21D;59019;47.638;18.966;2022-09-16T06:25:40;16.33;91.93
71254;HTU21D;59019;47.638;18.966;2022-09-16T06:28:06;16.36;91.26
71254;HTU21D;59019;47.638;18.966;2022-09-16T06:30:31;16.42;91.01
71254;HTU21D;59019;47.638;18.966;2022-09-16T06:32:57;16.48;91.01
71254;HTU21D;59019;47.638;18.966;2022-09-16T06:35:23;16.56;90.92
71254;HTU21D;59019;47.638;18.966;2022-09-16T06:37:48;16.58;90.75
71254;HTU21D;59019;47.638;18.966;2022-09-16T06:40:14;16.78;90.36
71254;HTU21D;59019;47.638;18.966;2022-09-16T06:42:39;16.77;89.90
71254;HTU21D;59019;47.638;18.966;2022-09-16T06:45:05;16.94;90.01
71254;HTU21D;59019;47.638;18.966;2022-09-16T06:47:31;17.24;90.05
71254;HTU21D;59019;47.638;18.966;2022-09-16T06:49:58;17.52;89.98
71254;HTU21D;59019;47.638;18.966;2022-09-16T06:52:24;17.75;88.99
71254;HTU21D;59019;47.638;18.966;2022-09-16T06:54:50;17.82;86.96
71254;HTU21D;59019;47.638;18.966;2022-09-16T06:57:16;17.82;86.42
71254;HTU21D;59019;47.638;18.966;2022-09-16T06:59:44;17.75;86.35
71254;HTU21D;59019;47.638;18.966;2022-09-16T07:02:10;17.69;85.96
71254;HTU21D;59019;47.638;18.966;2022-09-16T07:04:36;17.53;86.78
71254;HTU21D;59019;47.638;18.966;2022-09-16T07:07:02;17.50;86.96
71254;HTU21D;59019;47.638;18.966;2022-09-16T07:09:28;17.59;86.92
71254;HTU21D;59019;47.638;18.966;2022-09-16T07:11:54;17.72;86.83
71254;HTU21D;59019;47.638;18.966;2022-09-16T07:14:21;17.85;86.98
71254;HTU21D;59019;47.638;18.966;2022-09-16T07:16:47;17.91;87.12
71254;HTU21D;59019;47.638;18.966;2022-09-16T07:19:12;18.03;86.06
71254;HTU21D;59019;47.638;18.966;2022-09-16T07:21:38;17.94;86.21
71254;HTU21D;59019;47.638;18.966;2022-09-16T07:24:06;17.95;85.19
71254;HTU21D;59019;47.638;18.966;2022-09-16T07:26:33;17.97;85.79
71254;HTU21D;59019;47.638;18.966;2022-09-16T07:29:01;17.92;85.17
71254;HTU21D;59019;47.638;18.966;2022-09-16T07:31:29;17.83;85.59
71254;HTU21D;59019;47.638;18.966;2022-09-16T07:33:56;17.83;85.42
71254;HTU21D;59019;47.638;18.966;2022-09-16T07:36:25;17.97;85.05
71254;HTU21D;59019;47.638;18.966;2022-09-16T07:38:51;18.50;85.64
71254;HTU21D;59019;47.638;18.966;2022-09-16T07:41:21;19.18;83.10
71254;HTU21D;59019;47.638;18.966;2022-09-16T07:43:48;19.58;80.72
71254;HTU21D;59019;47.638;18.966;2022-09-16T07:46:15;19.77;80.44
71254;HTU21D;59019;47.638;18.966;2022-09-16T07:48:42;20.15;78.52
71254;HTU21D;59019;47.638;18.966;2022-09-16T07:51:10;20.70;79.43
71254;HTU21D;59019;47.638;18.966;2022-09-16T07:53:36;20.71;75.88
71254;HTU21D;59019;47.638;18.966;2022-09-16T07:56:04;20.49;75.82
71254;HTU21D;59019;47.638;18.966;2022-09-16T07:58:30;20.10;76.44
71254;HTU21D;59019;47.638;18.966;2022-09-16T08:00:55;19.75;76.75
71254;HTU21D;59019;47.638;18.966;2022-09-16T08:03:21;19.58;77.28
71254;HTU21D;59019;47.638;18.966;2022-09-16T08:05:47;19.40;77.56
71254;HTU21D;59019;47.638;18.966;2022-09-16T08:08:12;19.14;78.47
71254;HTU21D;59019;47.638;18.966;2022-09-16T08:10:38;19.13;78.79
71254;HTU21D;59019;47.638;18.966;2022-09-16T08:13:04;19.14;79.01
71254;HTU21D;59019;47.638;18.966;2022-09-16T08:15:31;19.20;78.53
71254;HTU21D;59019;47.638;18.966;2022-09-16T08:17:57;19.27;77.15
71254;HTU21D;59019;47.638;18.966;2022-09-16T08:20:23;19.23;77.89
71254;HTU21D;59019;47.638;18.966;2022-09-16T08:22:50;19.17;78.14
71254;HTU21D;59019;47.638;18.966;2022-09-16T08:25:16;19.10;78.05
71254;HTU21D;59019;47.638;18.966;2022-09-16T08:27:42;19.00;78.63
71254;HTU21D;59019;47.638;18.966;2022-09-16T08:30:08;18.79;78.59
71254;HTU21D;59019;47.638;18.966;2022-09-16T08:32:34;18.69;79.24
71254;HTU21D;59019;47.638;18.966;2022-09-16T08:35:00;18.49;79.07
71254;HTU21D;59019;47.638;18.966;2022-09-16T08:37:25;18.32;79.19
71254;HTU21D;59019;47.638;18.966;2022-09-16T08:39:51;18.20;80.10
71254;HTU21D;59019;47.638;18.966;2022-09-16T08:42:41;18.18;80.24
71254;HTU21D;59019;47.638;18.966;2022-09-16T08:45:28;18.19;80.65
71254;HTU21D;59019;47.638;18.966;2022-09-16T08:50:44;18.13;80.65
71254;HTU21D;59019;47.638;18.966;2022-09-16T08:56:20;18.49;80.04
71254;HTU21D;59019;47.638;18.966;2022-09-16T08:58:49;18.77;79.56
71254;HTU21D;59019;47.638;18.966;2022-09-16T09:01:20;18.89;78.92
71254;HTU21D;59019;47.638;18.966;2022-09-16T09:03:47;18.99;77.72
71254;HTU21D;59019;47.638;18.966;2022-09-16T09:09:49;18.92;77.70
71254;HTU21D;59019;47.638;18.966;2022-09-16T09:12:43;18.93;78.18
71254;HTU21D;59019;47.638;18.966;2022-09-16T09:21:14;18.99;77.26
71254;HTU21D;59019;47.638;18.966;2022-09-16T09:24:08;18.92;77.85
71254;HTU21D;59019;47.638;18.966;2022-09-16T09:26:48;18.85;77.59
71254;HTU21D;59019;47.638;18.966;2022-09-16T09:32:18;19.00;78.08
71254;HTU21D;59019;47.638;18.966;2022-09-16T09:46:24;19.24;76.45
71254;HTU21D;59019;47.638;18.966;2022-09-16T09:48:59;19.30;75.58
71254;HTU21D;59019;47.638;18.966;2022-09-16T09:51:48;19.46;74.98
71254;HTU21D;59019;47.638;18.966;2022-09-16T09:54:24;19.47;74.64
71254;HTU21D;59019;47.638;18.966;2022-09-16T09:57:00;19.38;74.51
71254;HTU21D;59019;47.638;18.966;2022-09-16T10:02:16;19.43;75.04
71254;HTU21D;59019;47.638;18.966;2022-09-16T10:04:43;19.43;74.72
71254;HTU21D;59019;47.638;18.966;2022-09-16T10:07:11;19.46;73.54
71254;HTU21D;59019;47.638;18.966;2022-09-16T10:09:47;19.38;74.26
71254;HTU21D;59019;47.638;18.966;2022-09-16T10:12:13;19.26;74.65
71254;HTU21D;59019;47.638;18.966;2022-09-16T10:14:50;19.24;75.18
71254;HTU21D;59019;47.638;18.966;2022-09-16T10:17:16;19.23;75.38
71254;HTU21D;59019;47.638;18.966;2022-09-16T10:19:57;19.22;75.71
71254;HTU21D;59019;47.638;18.966;2022-09-16T10:22:31;19.23;74.77
71254;HTU21D;59019;47.638;18.966;2022-09-16T10:25:02;19.30;74.70
71254;HTU21D;59019;47.638;18.966;2022-09-16T10:27:31;19.20;74.58
71254;HTU21D;59019;47.638;18.966;2022-09-16T10:30:17;19.17;74.34
71254;HTU21D;59019;47.638;18.966;2022-09-16T10:35:19;19.26;74.06
71254;HTU21D;59019;47.638;18.966;2022-09-16T10:37:51;19.21;73.19
71254;HTU21D;59019;47.638;18.966;2022-09-16T10:40:18;19.30;73.51
71254;HTU21D;59019;47.638;18.966;2022-09-16T10:42:47;19.27;73.22
71254;HTU21D;59019;47.638;18.966;2022-09-16T10:45:22;19.36;72.75
71254;HTU21D;59019;47.638;18.966;2022-09-16T10:47:52;19.50;73.23
71254;HTU21D;59019;47.638;18.966;2022-09-16T10:50:19;19.55;72.99
71254;HTU21D;59019;47.638;18.966;2022-09-16T10:52:47;19.59;71.96
71254;HTU21D;59019;47.638;18.966;2022-09-16T10:57:45;19.74;69.97
71254;HTU21D;59019;47.638;18.966;2022-09-16T11:00:24;19.96;70.68
71254;HTU21D;59019;47.638;18.966;2022-09-16T11:12:04;20.81;68.24
71254;HTU21D;59019;47.638;18.966;2022-09-16T11:17:14;21.00;67.39
71254;HTU21D;59019;47.638;18.966;2022-09-16T11:25:37;21.63;66.72
71254;HTU21D;59019;47.638;18.966;2022-09-16T11:31:10;21.38;66.14
71254;HTU21D;59019;47.638;18.966;2022-09-16T11:42:01;21.11;67.02
71254;HTU21D;59019;47.638;18.966;2022-09-16T11:44:43;21.11;65.69
71254;HTU21D;59019;47.638;18.966;2022-09-16T11:53:24;21.07;66.01
71254;HTU21D;59019;47.638;18.966;2022-09-16T11:56:11;21.23;65.95
71254;HTU21D;59019;47.638;18.966;2022-09-16T11:58:55;21.33;65.17
71254;HTU21D;59019;47.638;18.966;2022-09-16T12:04:19;21.77;63.31
71254;HTU21D;59019;47.638;18.966;2022-09-16T12:07:10;21.84;63.05
71254;HTU21D;59019;47.638;18.966;2022-09-16T12:12:18;21.85;62.98
71254;HTU21D;59019;47.638;18.966;2022-09-16T12:14:52;21.69;62.15
71254;HTU21D;59019;47.638;18.966;2022-09-16T12:17:25;21.55;63.04
71254;HTU21D;59019;47.638;18.966;2022-09-16T12:22:40;21.39;64.08
71254;HTU21D;59019;47.638;18.966;2022-09-16T12:25:14;21.40;63.74
71254;HTU21D;59019;47.638;18.966;2022-09-16T12:27:48;21.36;63.30
71254;HTU21D;59019;47.638;18.966;2022-09-16T12:30:18;21.16;63.79
71254;HTU21D;59019;47.638;18.966;2022-09-16T12:33:02;21.03;64.37
71254;HTU21D;59019;47.638;18.966;2022-09-16T12:35:58;20.89;65.22
71254;HTU21D;59019;47.638;18.966;2022-09-16T12:38:24;20.87;65.63
71254;HTU21D;59019;47.638;18.966;2022-09-16T13:01:24;20.91;63.12
71254;HTU21D;59019;47.638;18.966;2022-09-16T13:03:58;20.94;62.95
71254;HTU21D;59019;47.638;18.966;2022-09-16T13:06:34;20.95;63.37
71254;HTU21D;59019;47.638;18.966;2022-09-16T13:09:22;21.00;62.01
71254;HTU21D;59019;47.638;18.966;2022-09-16T13:14:23;21.19;62.43
71254;HTU21D;59019;47.638;18.966;2022-09-16T13:16:58;21.29;61.74
71254;HTU21D;59019;47.638;18.966;2022-09-16T13:19:49;21.32;61.05
71254;HTU21D;59019;47.638;18.966;2022-09-16T13:27:59;20.95;62.31
71254;HTU21D;59019;47.638;18.966;2022-09-16T13:30:38;20.91;62.79
71254;HTU21D;59019;47.638;18.966;2022-09-16T13:33:26;20.91;62.98
71254;HTU21D;59019;47.638;18.966;2022-09-16T13:36:14;20.92;63.74
71254;HTU21D;59019;47.638;18.966;2022-09-16T13:38:46;20.84;62.91
71254;HTU21D;59019;47.638;18.966;2022-09-16T13:41:28;20.85;62.38
71254;HTU21D;59019;47.638;18.966;2022-09-16T13:43:54;20.70;61.94
71254;HTU21D;59019;47.638;18.966;2022-09-16T13:51:42;20.63;62.69
71254;HTU21D;59019;47.638;18.966;2022-09-16T13:54:35;20.63;62.54
71254;HTU21D;59019;47.638;18.966;2022-09-16T14:00:12;20.56;62.79
71254;HTU21D;59019;47.638;18.966;2022-09-16T14:09:07;20.49;64.50
71254;HTU21D;59019;47.638;18.966;2022-09-16T14:14:10;20.32;65.09
71254;HTU21D;59019;47.638;18.966;2022-09-16T14:16:39;20.27;65.03
71254;HTU21D;59019;47.638;18.966;2022-09-16T14:21:45;20.03;66.46
71254;HTU21D;59019;47.638;18.966;2022-09-16T14:26:55;19.90;66.24
71254;HTU21D;59019;47.638;18.966;2022-09-16T14:29:23;19.87;66.93
71254;HTU21D;59019;47.638;18.966;2022-09-16T14:31:51;19.86;67.71
71254;HTU21D;59019;47.638;18.966;2022-09-16T14:34:30;19.87;66.34
71254;HTU21D;59019;47.638;18.966;2022-09-16T14:36:58;19.83;67.23
71254;HTU21D;59019;47.638;18.966;2022-09-16T14:39:25;19.83;67.65
71254;HTU21D;59019;47.638;18.966;2022-09-16T14:41:58;19.79;67.07
71254;HTU21D;59019;47.638;18.966;2022-09-16T14:44:33;19.71;66.79
71254;HTU21D;59019;47.638;18.966;2022-09-16T14:47:20;19.69;66.56
71254;HTU21D;59019;47.638;18.966;2022-09-16T14:49:49;19.69;67.26
71254;HTU21D;59019;47.638;18.966;2022-09-16T14:52:24;19.70;67.41
71254;HTU21D;59019;47.638;18.966;2022-09-16T14:54:50;19.72;67.35
71254;HTU21D;59019;47.638;18.966;2022-09-16T14:57:27;19.71;67.91
71254;HTU21D;59019;47.638;18.966;2022-09-16T15:00:00;19.69;67.66
71254;HTU21D;59019;47.638;18.966;2022-09-16T15:07:35;19.68;68.45
71254;HTU21D;59019;47.638;18.966;2022-09-16T15:10:27;19.69;68.13
71254;HTU21D;59019;47.638;18.966;2022-09-16T15:13:04;19.73;69.20
71254;HTU21D;59019;47.638;18.966;2022-09-16T15:15:35;19.67;68.79
71254;HTU21D;59019;47.638;18.966;2022-09-16T15:18:10;19.59;69.01
71254;HTU21D;59019;47.638;18.966;2022-09-16T15:20:40;19.50;69.60
71254;HTU21D;59019;47.638;18.966;2022-09-16T15:23:17;19.33;70.26
71254;HTU21D;59019;47.638;18.966;2022-09-16T15:25:58;19.29;70.55
71254;HTU21D;59019;47.638;18.966;2022-09-16T15:28:28;19.22;71.06
71254;HTU21D;59019;47.638;18.966;2022-09-16T15:30:54;19.16;71.32
71254;HTU21D;59019;47.638;18.966;2022-09-16T15:33:24;19.08;71.55
71254;HTU21D;59019;47.638;18.966;2022-09-16T15:35:51;19.06;71.60
71254;HTU21D;59019;47.638;18.966;2022-09-16T15:38:21;19.02;71.82
71254;HTU21D;59019;47.638;18.966;2022-09-16T15:40:59;18.98;72.55
71254;HTU21D;59019;47.638;18.966;2022-09-16T15:43:33;18.97;73.00
71254;HTU21D;59019;47.638;18.966;2022-09-16T15:46:02;18.92;72.98
71254;HTU21D;59019;47.638;18.966;2022-09-16T15:48:34;18.85;74.16
71254;HTU21D;59019;47.638;18.966;2022-09-16T15:51:07;18.84;74.14
71254;HTU21D;59019;47.638;18.966;2022-09-16T15:53:43;18.78;74.41
71254;HTU21D;59019;47.638;18.966;2022-09-16T15:56:38;18.65;74.92
71254;HTU21D;59019;47.638;18.966;2022-09-16T15:59:39;18.61;75.36
71254;HTU21D;59019;47.638;18.966;2022-09-16T16:02:37;18.51;76.14
71254;HTU21D;59019;47.638;18.966;2022-09-16T16:05:10;18.51;76.34
71254;HTU21D;59019;47.638;18.966;2022-09-16T16:07:42;18.47;76.62
71254;HTU21D;59019;47.638;18.966;2022-09-16T16:10:26;18.41;76.98
71254;HTU21D;59019;47.638;18.966;2022-09-16T16:12:53;18.42;77.01
71254;HTU21D;59019;47.638;18.966;2022-09-16T16:15:22;18.40;77.29
71254;HTU21D;59019;47.638;18.966;2022-09-16T16:17:48;18.35;77.69
71254;HTU21D;59019;47.638;18.966;2022-09-16T16:20:15;18.35;77.45
71254;HTU21D;59019;47.638;18.966;2022-09-16T16:22:41;18.24;78.05
71254;HTU21D;59019;47.638;18.966;2022-09-16T16:25:11;18.13;78.11
71254;HTU21D;59019;47.638;18.966;2022-09-16T16:27:38;18.08;78.37
71254;HTU21D;59019;47.638;18.966;2022-09-16T16:30:05;18.03;78.73
71254;HTU21D;59019;47.638;18.966;2022-09-16T16:32:30;18.03;79.04
71254;HTU21D;59019;47.638;18.966;2022-09-16T16:34:56;17.99;79.14
71254;HTU21D;59019;47.638;18.966;2022-09-16T16:37:23;17.88;79.82
71254;HTU21D;59019;47.638;18.966;2022-09-16T16:39:49;17.79;80.01
71254;HTU21D;59019;47.638;18.966;2022-09-16T16:42:15;17.72;80.56
71254;HTU21D;59019;47.638;18.966;2022-09-16T16:44:41;17.63;80.81
71254;HTU21D;59019;47.638;18.966;2022-09-16T16:47:08;17.52;81.30
71254;HTU21D;59019;47.638;18.966;2022-09-16T16:49:34;17.49;81.39
71254;HTU21D;59019;47.638;18.966;2022-09-16T16:52:00;17.51;81.81
71254;HTU21D;59019;47.638;18.966;2022-09-16T16:54:26;17.38;82.13
71254;HTU21D;59019;47.638;18.966;2022-09-16T16:56:53;17.31;82.61
71254;HTU21D;59019;47.638;18.966;2022-09-16T16:59:19;17.24;82.97
71254;HTU21D;59019;47.638;18.966;2022-09-16T17:01:49;17.15;82.97
71254;HTU21D;59019;47.638;18.966;2022-09-16T17:04:14;17.03;83.26
71254;HTU21D;59019;47.638;18.966;2022-09-16T17:06:40;17.01;83.01
71254;HTU21D;59019;47.638;18.966;2022-09-16T17:09:07;16.92;83.26
71254;HTU21D;59019;47.638;18.966;2022-09-16T17:11:34;16.87;83.30
71254;HTU21D;59019;47.638;18.966;2022-09-16T17:14:04;16.84;83.49
71254;HTU21D;59019;47.638;18.966;2022-09-16T17:16:30;16.78;83.56
71254;HTU21D;59019;47.638;18.966;2022-09-16T17:18:58;16.74;83.78
71254;HTU21D;59019;47.638;18.966;2022-09-16T17:21:26;16.70;84.25
71254;HTU21D;59019;47.638;18.966;2022-09-16T17:23:52;16.64;84.64
71254;HTU21D;59019;47.638;18.966;2022-09-16T17:26:19;16.63;84.51
71254;HTU21D;59019;47.638;18.966;2022-09-16T17:28:46;16.57;84.97
71254;HTU21D;59019;47.638;18.966;2022-09-16T17:31:20;16.55;85.52
71254;HTU21D;59019;47.638;18.966;2022-09-16T17:33:48;16.49;85.60
71254;HTU21D;59019;47.638;18.966;2022-09-16T17:36:15;16.50;86.04
71254;HTU21D;59019;47.638;18.966;2022-09-16T17:38:42;16.48;86.13
71254;HTU21D;59019;47.638;18.966;2022-09-16T17:41:10;16.48;86.00
71254;HTU21D;59019;47.638;18.966;2022-09-16T17:43:36;16.49;85.86
71254;HTU21D;59019;47.638;18.966;2022-09-16T17:46:04;16.47;85.46
71254;HTU21D;59019;47.638;18.966;2022-09-16T17:48:30;16.45;85.61
71254;HTU21D;59019;47.638;18.966;2022-09-16T17:50:56;16.44;85.52
71254;HTU21D;59019;47.638;18.966;2022-09-16T17:53:23;16.42;85.77
71254;HTU21D;59019;47.638;18.966;2022-09-16T17:55:49;16.41;85.84
71254;HTU21D;59019;47.638;18.966;2022-09-16T17:58:15;16.42;85.77
71254;HTU21D;59019;47.638;18.966;2022-09-16T18:00:41;16.41;86.16
71254;HTU21D;59019;47.638;18.966;2022-09-16T18:03:08;16.40;86.00
71254;HTU21D;59019;47.638;18.966;2022-09-16T18:05:35;16.33;86.38
71254;HTU21D;59019;47.638;18.966;2022-09-16T18:08:01;16.29;86.51
71254;HTU21D;59019;47.638;18.966;2022-09-16T18:10:27;16.25;86.64
71254;HTU21D;59019;47.638;18.966;2022-09-16T18:12:52;16.22;86.31
71254;HTU21D;59019;47.638;18.966;2022-09-16T18:15:18;16.20;86.18
71254;HTU21D;59019;47.638;18.966;2022-09-16T18:17:44;16.19;86.12
71254;HTU21D;59019;47.638;18.966;2022-09-16T18:20:10;16.21;86.35
71254;HTU21D;59019;47.638;18.966;2022-09-16T18:22:36;16.18;85.71
71254;HTU21D;59019;47.638;18.966;2022-09-16T18:25:02;16.17;85.51
71254;HTU21D;59019;47.638;18.966;2022-09-16T18:27:29;16.16;86.14
71254;HTU21D;59019;47.638;18.966;2022-09-16T18:29:54;16.14;86.53